Terminal Aerodrome Forecast
Issued by NWS

Home | Current Version | Previous Version | Text Only | Print | Product List | Glossary On
Versions: 1 2 3 4 5 6 7 8 9 10 11 12 13 14 15
000
FTUS43 KEAX 242000 AAA
TAFSTJ
TAF AMD
KSTJ 242011Z 2420/2518 34012G22KT P6SM OVC015
     FM242100 33012G21KT P6SM OVC030
     FM250000 29005KT P6SM SKC
     FM251600 23016KT P6SM FEW250=

USA.gov is the U.S. government's official web portal to all federal, state and local government web resources and services.